createdAt,value
2022-10-01T00:00:02.009Z,101311.48
2022-10-01T00:02:58.369Z,101310.67
2022-10-01T00:05:26.761Z,101310.17
2022-10-01T00:07:55.165Z,101306.61
2022-10-01T00:10:24.114Z,101303.99
2022-10-01T00:12:52.245Z,101306.81
2022-10-01T00:15:21.879Z,101304.96
2022-10-01T00:17:50.071Z,101304.27
2022-10-01T00:20:18.880Z,101297.44
2022-10-01T00:22:47.933Z,101301.28
2022-10-01T00:25:16.361Z,101301.23
2022-10-01T00:27:47.592Z,101298.13
2022-10-01T00:30:15.760Z,101295.15
2022-10-01T00:32:43.866Z,101294.51
2022-10-01T00:35:12.505Z,101291.11
2022-10-01T00:37:40.641Z,101290.37
2022-10-01T00:40:09.608Z,101281.95
2022-10-01T00:42:37.838Z,101280.68
2022-10-01T00:45:06.123Z,101276.42
2022-10-01T00:47:44.948Z,101281.22
2022-10-01T00:50:21.896Z,101284.27
2022-10-01T00:52:57.405Z,101267.97
2022-10-01T00:55:36.387Z,101281.73
2022-10-01T00:58:05.412Z,101273.24
2022-10-01T01:00:35.320Z,101272.58
2022-10-01T01:03:05.112Z,101272.29
2022-10-01T01:05:33.188Z,101267.23
2022-10-01T01:08:03.099Z,101267.02
2022-10-01T01:10:50.309Z,101265.79
2022-10-01T01:13:34.396Z,101263.19
2022-10-01T01:16:09.404Z,101260.77
2022-10-01T01:18:59.295Z,101263.80
2022-10-01T01:21:44.524Z,101269.23
2022-10-01T01:24:36.959Z,101269.31
2022-10-01T01:27:28.720Z,101267.79
2022-10-01T01:30:17.105Z,101265.92
2022-10-01T01:32:57.445Z,101263.21
2022-10-01T01:35:37.746Z,101264.98
2022-10-01T01:38:11.591Z,101263.48
2022-10-01T01:40:43.637Z,101263.31
2022-10-01T01:43:18.680Z,101267.21
2022-10-01T01:45:50.095Z,101266.10
2022-10-01T01:48:18.359Z,101269.32
2022-10-01T01:51:00.663Z,101268.80
2022-10-01T01:53:32.317Z,101273.23
2022-10-01T01:56:00.655Z,101274.03
2022-10-01T01:58:29.510Z,101275.50
2022-10-01T02:00:57.699Z,101274.42
2022-10-01T02:03:29.339Z,101259.09
2022-10-01T02:06:33.689Z,101271.69
2022-10-01T02:09:15.944Z,101269.41
2022-10-01T02:12:08.880Z,101269.84
2022-10-01T02:15:06.118Z,101257.73
2022-10-01T02:17:57.081Z,101257.30
2022-10-01T02:20:37.805Z,101266.83
2022-10-01T02:23:15.164Z,101261.84
2022-10-01T02:25:59.740Z,101264.77
2022-10-01T02:28:31.417Z,101268.17
2022-10-01T02:31:02.222Z,101265.80
2022-10-01T02:33:33.571Z,101264.85
2022-10-01T02:36:04.518Z,101264.98
2022-10-01T02:38:36.876Z,101266.47
2022-10-01T02:41:08.372Z,101267.91
2022-10-01T02:43:45.664Z,101268.73
2022-10-01T02:46:34.460Z,101263.41
2022-10-01T02:49:04.579Z,101263.97
2022-10-01T02:51:55.972Z,101248.39
2022-10-01T02:54:52.196Z,101258.69
2022-10-01T02:57:23.543Z,101261.70
2022-10-01T02:59:52.138Z,101256.45
2022-10-01T03:02:21.319Z,101252.70
2022-10-01T03:04:49.518Z,101251.74
2022-10-01T03:07:18.744Z,101250.05
2022-10-01T03:09:47.010Z,101249.77
2022-10-01T03:12:17.244Z,101251.32
2022-10-01T03:14:46.407Z,101251.14
2022-10-01T03:17:15.256Z,101247.53
2022-10-01T03:19:43.507Z,101243.73
2022-10-01T03:22:14.544Z,101240.74
2022-10-01T03:24:42.847Z,101234.46
2022-10-01T03:27:11.232Z,101236.41
2022-10-01T03:29:39.359Z,101218.15
2022-10-01T03:32:32.648Z,101230.60
2022-10-01T03:35:26.795Z,101230.35
2022-10-01T03:37:54.927Z,101222.71
2022-10-01T03:40:25.438Z,101222.63
2022-10-01T03:42:53.606Z,101225.83
2022-10-01T03:45:21.819Z,101215.37
2022-10-01T03:47:53.383Z,101223.86
2022-10-01T03:50:22.159Z,101228.48
2022-10-01T03:52:51.460Z,101225.80
2022-10-01T03:55:19.619Z,101223.34
2022-10-01T03:57:47.967Z,101217.88
2022-10-01T04:00:18.559Z,101214.58
2022-10-01T04:02:46.896Z,101211.02
2022-10-01T04:05:15.319Z,101213.67
2022-10-01T04:07:43.633Z,101207.89
2022-10-01T04:10:11.950Z,101203.99
2022-10-01T04:12:40.091Z,101205.14
2022-10-01T04:15:08.657Z,101203.09
2022-10-01T04:17:37.626Z,101199.79
2022-10-01T04:20:06.173Z,101197.21
2022-10-01T04:22:40.758Z,101192.52
2022-10-01T04:25:11.037Z,101189.15
2022-10-01T04:27:55.297Z,101191.02
2022-10-01T04:30:24.043Z,101157.70
2022-10-01T04:32:52.318Z,101184.48
2022-10-01T04:35:21.469Z,101178.64
2022-10-01T04:38:02.057Z,101175.45
2022-10-01T04:40:36.406Z,101178.61
2022-10-01T04:43:09.725Z,101172.02
2022-10-01T04:45:38.246Z,101174.23
2022-10-01T04:48:06.414Z,101171.48
2022-10-01T04:50:35.034Z,101169.55
2022-10-01T04:53:03.169Z,101174.66
2022-10-01T04:55:31.421Z,101174.64
2022-10-01T04:57:59.652Z,101180.16
2022-10-01T05:00:28.038Z,101186.00
2022-10-01T05:02:56.301Z,101192.41
2022-10-01T05:05:25.117Z,101195.45
2022-10-01T05:07:53.331Z,101202.85
2022-10-01T05:10:23.287Z,101197.91
2022-10-01T05:12:52.179Z,101200.73
2022-10-01T05:15:21.124Z,101202.38
2022-10-01T05:17:49.304Z,101203.39
2022-10-01T05:20:23.115Z,101204.82
2022-10-01T05:22:51.284Z,101205.39
2022-10-01T05:25:19.845Z,101203.58
2022-10-01T05:27:48.116Z,101208.19
2022-10-01T05:30:22.375Z,101206.33
2022-10-01T05:32:55.655Z,101209.77
2022-10-01T05:35:24.619Z,101210.96
2022-10-01T05:37:54.180Z,101212.64
2022-10-01T05:40:22.595Z,101208.86
2022-10-01T05:42:50.695Z,101209.50
2022-10-01T05:45:21.087Z,101206.14
2022-10-01T05:48:18.904Z,101201.51
2022-10-01T05:50:47.175Z,101197.98
2022-10-01T05:53:15.884Z,101194.82
2022-10-01T05:55:44.356Z,101196.29
2022-10-01T05:58:15.845Z,101202.04
2022-10-01T06:01:08.709Z,101200.90
2022-10-01T06:03:38.952Z,101198.43
2022-10-01T06:06:07.084Z,101196.41
2022-10-01T06:09:25.725Z,101202.80
2022-10-01T06:11:54.095Z,101204.23
2022-10-01T06:14:22.743Z,101206.96
2022-10-01T06:16:54.859Z,101205.52
2022-10-01T06:19:51.587Z,101206.25
2022-10-01T06:22:19.934Z,101198.92
2022-10-01T06:24:48.078Z,101196.30
2022-10-01T06:27:16.330Z,101196.41
2022-10-01T06:29:44.747Z,101191.58
2022-10-01T06:32:41.138Z,101193.55
2022-10-01T06:35:09.479Z,101171.67
2022-10-01T06:37:38.750Z,101183.94
2022-10-01T06:40:07.558Z,101185.70
2022-10-01T06:42:35.762Z,101187.03
2022-10-01T06:45:04.362Z,101183.61
2022-10-01T06:47:32.558Z,101184.27
2022-10-01T06:50:00.774Z,101161.90
2022-10-01T06:52:47.982Z,101173.17
2022-10-01T06:55:26.528Z,101167.55
2022-10-01T06:57:56.749Z,101162.80
2022-10-01T07:00:26.256Z,101162.77
2022-10-01T07:02:55.874Z,101163.43
2022-10-01T07:05:50.179Z,101161.85
2022-10-01T07:08:18.953Z,101156.41
2022-10-01T07:10:47.236Z,101153.45
2022-10-01T07:13:18.143Z,101154.20
2022-10-01T07:15:46.630Z,101152.61
2022-10-01T07:18:15.066Z,101150.97
2022-10-01T07:21:09.637Z,101147.51
2022-10-01T07:23:37.809Z,101141.69
2022-10-01T07:26:32.863Z,101140.46
2022-10-01T07:29:01.497Z,101137.00
2022-10-01T07:31:32.373Z,101123.75
2022-10-01T07:34:06.097Z,101127.05
2022-10-01T07:36:34.406Z,101130.77
2022-10-01T07:39:02.558Z,101125.90
2022-10-01T07:41:30.931Z,101120.70
2022-10-01T07:43:59.246Z,101116.05
2022-10-01T07:46:30.385Z,101114.77
2022-10-01T07:49:00.974Z,101114.02
2022-10-01T07:51:29.201Z,101114.72
2022-10-01T07:53:58.213Z,101106.84
2022-10-01T07:56:27.081Z,101105.05
2022-10-01T07:58:59.234Z,101103.02
2022-10-01T08:01:27.420Z,101099.54
2022-10-01T08:03:55.877Z,101073.14
2022-10-01T08:06:25.771Z,101098.19
2022-10-01T08:08:54.767Z,101089.55
2022-10-01T08:11:24.841Z,101090.21
2022-10-01T08:13:56.117Z,101091.20
2022-10-01T08:16:24.520Z,101087.30
2022-10-01T08:18:55.482Z,101082.73
2022-10-01T08:21:23.803Z,101078.61
2022-10-01T08:23:51.962Z,101079.05
2022-10-01T08:26:20.210Z,101076.53
2022-10-01T08:28:48.378Z,101074.14
2022-10-01T08:31:16.656Z,101069.10
2022-10-01T08:33:45.614Z,101064.08
2022-10-01T08:36:38.929Z,101063.44
2022-10-01T08:39:07.631Z,101052.20
2022-10-01T08:41:52.257Z,101059.41
2022-10-01T08:44:27.978Z,101055.80
2022-10-01T08:47:02.050Z,101051.21
2022-10-01T08:49:42.419Z,101043.41
2022-10-01T08:52:22.347Z,101039.11
2022-10-01T08:54:56.873Z,101035.10
2022-10-01T08:57:32.929Z,101029.70
2022-10-01T09:00:08.100Z,101026.88
2022-10-01T09:02:40.066Z,101021.65
2022-10-01T09:05:17.762Z,101018.66
2022-10-01T09:08:04.326Z,101011.89
2022-10-01T09:10:46.612Z,101009.14
2022-10-01T09:13:26.667Z,101003.39
2022-10-01T09:16:20.840Z,101005.13
2022-10-01T09:18:52.020Z,101004.53
2022-10-01T09:21:36.897Z,101000.35
2022-10-01T09:24:15.079Z,100984.42
2022-10-01T09:26:48.896Z,100972.35
2022-10-01T09:29:28.646Z,100990.98
2022-10-01T09:31:58.408Z,100985.83
2022-10-01T09:34:44.151Z,100987.08
2022-10-01T09:37:24.295Z,100977.39
2022-10-01T09:40:16.223Z,100968.60
2022-10-01T09:42:44.525Z,100964.41
2022-10-01T09:45:15.040Z,100960.08
2022-10-01T09:47:51.347Z,100955.07
2022-10-01T09:50:28.648Z,100955.04
2022-10-01T09:53:00.436Z,100945.19
2022-10-01T09:55:39.157Z,100949.60
2022-10-01T09:58:18.664Z,100950.56
2022-10-01T10:00:48.517Z,100946.92
2022-10-01T10:03:30.873Z,100942.83
2022-10-01T10:06:00.190Z,100941.04
2022-10-01T10:08:40.200Z,100932.42
2022-10-01T10:11:20.656Z,100927.23
2022-10-01T10:13:59.730Z,100922.86
2022-10-01T10:16:31.099Z,100918.98
2022-10-01T10:19:26.720Z,100914.78
2022-10-01T10:22:00.812Z,100909.41
2022-10-01T10:24:34.540Z,100907.22
2022-10-01T10:27:06.638Z,100900.16
2022-10-01T10:29:37.292Z,100889.77
2022-10-01T10:32:26.224Z,100890.44
2022-10-01T10:35:02.940Z,100885.17
2022-10-01T10:37:36.980Z,100880.16
2022-10-01T10:40:10.163Z,100872.25
2022-10-01T10:42:39.030Z,100867.05
2022-10-01T10:45:17.855Z,100856.80
2022-10-01T10:47:49.684Z,100864.69
2022-10-01T10:50:36.183Z,100863.27
2022-10-01T10:53:22.392Z,100853.51
2022-10-01T10:56:02.041Z,100855.84
2022-10-01T10:58:33.488Z,100852.90
2022-10-01T11:01:12.240Z,100849.13
2022-10-01T11:04:20.872Z,100846.33
2022-10-01T11:07:03.114Z,100849.96
2022-10-01T11:09:47.782Z,100847.16
2022-10-01T11:12:29.428Z,100839.52
2022-10-01T11:15:11.234Z,100832.85
2022-10-01T11:18:01.251Z,100828.60
2022-10-01T11:20:50.739Z,100823.48
2022-10-01T11:23:30.999Z,100821.77
2022-10-01T11:26:04.904Z,100818.05
2022-10-01T11:28:50.306Z,100819.74
2022-10-01T11:31:36.842Z,100821.77
2022-10-01T11:34:21.727Z,100815.77
2022-10-01T11:37:19.341Z,100808.39
2022-10-01T11:40:33.558Z,100808.31
2022-10-01T11:43:14.371Z,100805.39
2022-10-01T11:45:48.474Z,100800.70
2022-10-01T11:48:47.806Z,100801.17
2022-10-01T11:51:22.955Z,100796.51
2022-10-01T11:53:58.447Z,100787.41
2022-10-01T11:57:15.555Z,100787.95
2022-10-01T11:59:50.715Z,100780.00
2022-10-01T12:02:39.360Z,100765.71
2022-10-01T12:05:26.566Z,100772.84
2022-10-01T12:08:09.454Z,100768.52
2022-10-01T12:10:40.689Z,100764.02
2022-10-01T12:13:22.817Z,100759.18
2022-10-01T12:15:54.141Z,100754.30
2022-10-01T12:18:44.509Z,100754.84
2022-10-01T12:21:44.432Z,100757.29
2022-10-01T12:24:36.641Z,100759.98
2022-10-01T12:27:26.584Z,100765.19
2022-10-01T12:30:07.579Z,100755.68
2022-10-01T12:32:38.721Z,100754.40
2022-10-01T12:35:27.854Z,100754.64
2022-10-01T12:38:32.694Z,100754.86
2022-10-01T12:41:09.413Z,100757.37
2022-10-01T12:44:02.952Z,100757.20
2022-10-01T12:47:19.110Z,100747.85
2022-10-01T12:50:16.620Z,100748.51
2022-10-01T12:53:02.977Z,100738.73
2022-10-01T12:55:48.639Z,100735.68
2022-10-01T12:58:38.140Z,100731.53
2022-10-01T13:01:11.930Z,100712.89
2022-10-01T13:04:03.503Z,100717.69
2022-10-01T13:06:53.202Z,100721.98
2022-10-01T13:09:45.364Z,100721.61
2022-10-01T13:12:31.380Z,100719.23
2022-10-01T13:15:00.214Z,100716.51
2022-10-01T13:17:49.584Z,100712.50
2022-10-01T13:20:21.356Z,100711.48
2022-10-01T13:23:07.380Z,100702.44
2022-10-01T13:25:56.821Z,100698.88
2022-10-01T13:28:29.180Z,100692.85
2022-10-01T13:31:00.879Z,100687.09
2022-10-01T13:33:36.269Z,100682.32
2022-10-01T13:36:06.327Z,100676.83
2022-10-01T13:38:40.711Z,100676.52
2022-10-01T13:41:17.943Z,100678.65
2022-10-01T13:43:58.219Z,100675.05
2022-10-01T13:46:32.481Z,100674.64
2022-10-01T13:49:14.028Z,100671.33
2022-10-01T13:51:45.387Z,100666.11
2022-10-01T13:54:25.411Z,100663.60
2022-10-01T13:56:53.651Z,100660.77
2022-10-01T13:59:32.987Z,100660.59
2022-10-01T14:02:01.309Z,100661.78
2022-10-01T14:04:40.378Z,100657.90
2022-10-01T14:07:22.087Z,100656.72
2022-10-01T14:09:54.499Z,100643.46
2022-10-01T14:12:53.624Z,100651.94
2022-10-01T14:15:48.523Z,100648.17
2022-10-01T14:18:21.244Z,100644.29
2022-10-01T14:21:02.369Z,100628.31
2022-10-01T14:23:55.039Z,100635.95
2022-10-01T14:26:44.954Z,100634.30
2022-10-01T14:29:28.882Z,100632.85
2022-10-01T14:32:15.803Z,100630.11
2022-10-01T14:35:12.919Z,100624.36
2022-10-01T14:37:41.147Z,100623.45
2022-10-01T14:40:22.999Z,100628.83
2022-10-01T14:43:02.314Z,100625.21
2022-10-01T14:45:30.500Z,100624.52
2022-10-01T14:48:07.204Z,100620.49
2022-10-01T14:50:37.764Z,100613.26
2022-10-01T14:53:06.890Z,100612.61
2022-10-01T14:55:35.940Z,100609.02
2022-10-01T14:58:05.326Z,100603.58
2022-10-01T15:00:34.906Z,100598.02
2022-10-01T15:03:17.775Z,100599.16
2022-10-01T15:05:47.741Z,100582.69
2022-10-01T15:08:40.574Z,100592.27
2022-10-01T15:11:14.668Z,100594.77
2022-10-01T15:13:45.054Z,100594.00
2022-10-01T15:16:17.922Z,100592.32
2022-10-01T15:18:50.307Z,100590.80
2022-10-01T15:21:48.322Z,100590.94
2022-10-01T15:24:29.651Z,100587.61
2022-10-01T15:26:58.862Z,100585.98
2022-10-01T15:29:27.771Z,100583.73
2022-10-01T15:31:58.497Z,100585.92
2022-10-01T15:34:27.842Z,100587.31
2022-10-01T15:36:56.962Z,100580.64
2022-10-01T15:39:30.148Z,100575.23
2022-10-01T15:42:01.361Z,100576.51
2022-10-01T15:44:41.236Z,100572.82
2022-10-01T15:47:34.239Z,100570.80
2022-10-01T15:50:11.223Z,100568.61
2022-10-01T15:52:54.538Z,100566.66
2022-10-01T15:55:28.285Z,100566.02
2022-10-01T15:58:06.948Z,100565.52
2022-10-01T16:00:53.433Z,100567.54
2022-10-01T16:03:30.204Z,100564.16
2022-10-01T16:06:01.941Z,100564.02
2022-10-01T16:08:36.871Z,100568.13
2022-10-01T16:11:14.691Z,100567.60
2022-10-01T16:13:49.200Z,100563.93
2022-10-01T16:16:22.173Z,100564.91
2022-10-01T16:19:21.855Z,100562.21
2022-10-01T16:22:19.833Z,100558.45
2022-10-01T16:24:50.795Z,100551.42
2022-10-01T16:27:22.061Z,100550.82
2022-10-01T16:30:13.152Z,100539.49
2022-10-01T16:32:41.296Z,100547.94
2022-10-01T16:35:17.136Z,100546.77
2022-10-01T16:37:47.732Z,100544.30
2022-10-01T16:40:21.823Z,100542.31
2022-10-01T16:42:51.118Z,100539.50
2022-10-01T16:45:24.333Z,100535.84
2022-10-01T16:47:54.049Z,100517.98
2022-10-01T16:50:23.069Z,100532.34
2022-10-01T16:52:55.762Z,100526.23
2022-10-01T16:55:26.516Z,100528.31
2022-10-01T16:57:55.019Z,100522.65
2022-10-01T17:00:25.847Z,100519.41
2022-10-01T17:02:55.553Z,100516.94
2022-10-01T17:05:30.159Z,100514.09
2022-10-01T17:08:01.003Z,100514.27
2022-10-01T17:10:32.784Z,100509.45
2022-10-01T17:13:02.208Z,100508.79
2022-10-01T17:15:31.363Z,100514.32
2022-10-01T17:18:00.189Z,100511.41
2022-10-01T17:20:29.861Z,100505.58
2022-10-01T17:22:58.825Z,100502.40
2022-10-01T17:25:34.525Z,100504.61
2022-10-01T17:28:08.560Z,100501.98
2022-10-01T17:30:40.509Z,100497.83
2022-10-01T17:33:11.209Z,100495.81
2022-10-01T17:35:45.469Z,100495.17
2022-10-01T17:38:13.793Z,100492.94
2022-10-01T17:40:43.273Z,100492.70
2022-10-01T17:43:12.364Z,100493.45
2022-10-01T17:45:40.989Z,100493.02
2022-10-01T17:48:09.900Z,100488.39
2022-10-01T17:50:43.635Z,100474.13
2022-10-01T17:53:12.454Z,100484.10
2022-10-01T17:55:46.832Z,100468.27
2022-10-01T17:58:16.022Z,100486.67
2022-10-01T18:00:44.357Z,100488.84
2022-10-01T18:03:12.687Z,100486.21
2022-10-01T18:05:42.303Z,100484.34
2022-10-01T18:08:10.466Z,100465.52
2022-10-01T18:10:38.744Z,100487.77
2022-10-01T18:13:06.962Z,100484.36
2022-10-01T18:15:35.227Z,100478.58
2022-10-01T18:20:51.483Z,100474.52
2022-10-01T18:23:19.674Z,100472.66
2022-10-01T18:25:47.870Z,100471.95
2022-10-01T18:28:16.065Z,100472.80
2022-10-01T18:30:44.355Z,100467.31
2022-10-01T18:33:12.999Z,100471.13
2022-10-01T18:35:44.264Z,100468.03
2022-10-01T18:38:27.449Z,100471.17
2022-10-01T18:41:08.657Z,100466.81
2022-10-01T18:43:38.792Z,100465.20
2022-10-01T18:46:14.901Z,100460.02
2022-10-01T18:48:45.888Z,100457.04
2022-10-01T18:51:38.304Z,100455.42
2022-10-01T18:54:24.742Z,100455.89
2022-10-01T18:57:17.731Z,100451.98
2022-10-01T19:00:17.624Z,100445.60
2022-10-01T19:03:28.631Z,100447.14
2022-10-01T19:06:11.662Z,100432.94
2022-10-01T19:09:11.672Z,100447.75
2022-10-01T19:12:04.634Z,100446.24
2022-10-01T19:14:56.144Z,100444.95
2022-10-01T19:17:32.738Z,100443.01
2022-10-01T19:20:00.836Z,100440.53
2022-10-01T19:22:56.113Z,100436.55
2022-10-01T19:25:51.335Z,100438.42
2022-10-01T19:28:53.335Z,100434.63
2022-10-01T19:31:41.862Z,100439.93
2022-10-01T19:34:18.770Z,100438.50
2022-10-01T19:36:56.369Z,100442.70
2022-10-01T19:39:30.394Z,100447.96
2022-10-01T19:42:25.258Z,100450.13
2022-10-01T19:44:58.563Z,100458.11
2022-10-01T19:47:46.023Z,100459.52
2022-10-01T19:50:31.776Z,100454.83
2022-10-01T19:53:02.261Z,100450.45
2022-10-01T19:55:38.773Z,100452.50
2022-10-01T19:58:18.894Z,100453.26
2022-10-01T20:00:51.620Z,100455.44
2022-10-01T20:03:43.423Z,100458.67
2022-10-01T20:06:28.598Z,100455.55
2022-10-01T20:09:03.946Z,100456.55
2022-10-01T20:11:55.461Z,100460.57
2022-10-01T20:15:02.286Z,100462.90
2022-10-01T20:18:13.095Z,100469.70
2022-10-01T20:21:14.173Z,100467.83
2022-10-01T20:23:49.617Z,100462.82
2022-10-01T20:26:36.941Z,100458.14
2022-10-01T20:29:43.503Z,100455.36
2022-10-01T20:32:36.011Z,100448.93
2022-10-01T20:35:26.535Z,100459.86
2022-10-01T20:38:15.232Z,100463.23
2022-10-01T20:40:55.682Z,100462.73
2022-10-01T20:43:31.461Z,100465.71
2022-10-01T20:46:14.927Z,100466.92
2022-10-01T20:48:47.795Z,100463.80
2022-10-01T20:51:30.773Z,100464.11
2022-10-01T20:54:16.542Z,100462.42
2022-10-01T20:56:57.045Z,100458.11
2022-10-01T20:59:33.172Z,100458.62
2022-10-01T21:02:19.657Z,100460.72
2022-10-01T21:04:56.519Z,100461.31
2022-10-01T21:07:36.648Z,100464.70
2022-10-01T21:10:17.333Z,100466.34
2022-10-01T21:12:56.076Z,100466.84
2022-10-01T21:15:35.244Z,100469.86
2022-10-01T21:18:46.832Z,100471.87
2022-10-01T21:21:42.440Z,100470.90
2022-10-01T21:24:36.848Z,100465.13
2022-10-01T21:27:53.075Z,100470.61
2022-10-01T21:30:22.420Z,100466.05
2022-10-01T21:33:16.202Z,100466.77
2022-10-01T21:35:47.346Z,100463.26
2022-10-01T21:38:28.189Z,100461.35
2022-10-01T21:41:16.380Z,100458.62
2022-10-01T21:44:21.723Z,100456.58
2022-10-01T21:47:00.249Z,100460.05
2022-10-01T21:49:51.431Z,100461.23
2022-10-01T21:52:43.683Z,100462.92
2022-10-01T21:55:33.058Z,100461.38
2022-10-01T21:58:25.972Z,100463.57
2022-10-01T22:01:09.674Z,100459.40
2022-10-01T22:03:46.414Z,100461.90
2022-10-01T22:06:26.715Z,100462.30
2022-10-01T22:09:24.239Z,100460.99
2022-10-01T22:11:56.485Z,100461.00
2022-10-01T22:14:26.475Z,100462.14
2022-10-01T22:17:03.808Z,100461.27
2022-10-01T22:19:39.008Z,100459.81
2022-10-01T22:22:14.647Z,100458.86
2022-10-01T22:25:08.867Z,100441.88
2022-10-01T22:27:52.097Z,100456.95
2022-10-01T22:30:25.751Z,100456.77
2022-10-01T22:33:12.224Z,100456.89
2022-10-01T22:35:44.558Z,100457.08
2022-10-01T22:38:30.716Z,100438.73
2022-10-01T22:41:07.009Z,100440.45
2022-10-01T22:44:09.897Z,100449.65
2022-10-01T22:47:02.409Z,100450.13
2022-10-01T22:49:38.477Z,100452.36
2022-10-01T22:52:43.441Z,100452.87
2022-10-01T22:55:48.137Z,100454.27
2022-10-01T22:58:32.864Z,100452.27
2022-10-01T23:01:22.388Z,100452.77
2022-10-01T23:04:11.762Z,100453.71
2022-10-01T23:06:58.407Z,100449.98
2022-10-01T23:09:35.033Z,100456.39
2022-10-01T23:12:16.601Z,100461.20
2022-10-01T23:14:53.843Z,100464.27
2022-10-01T23:17:29.064Z,100463.07
2022-10-01T23:20:12.352Z,100464.70
2022-10-01T23:22:54.108Z,100460.95
2022-10-01T23:25:54.843Z,100462.21
2022-10-01T23:28:47.588Z,100462.79
2022-10-01T23:31:31.630Z,100460.50
2022-10-01T23:34:21.197Z,100456.77
2022-10-01T23:37:00.103Z,100459.28
2022-10-01T23:40:03.699Z,100463.02
2022-10-01T23:42:47.655Z,100463.55
2022-10-01T23:46:02.158Z,100464.96
2022-10-01T23:48:48.607Z,100464.59
2022-10-01T23:51:28.755Z,100465.20
2022-10-01T23:54:17.414Z,100464.71
2022-10-01T23:57:10.339Z,100467.61
